Main page
METAR-TAF:

METAR-TAF

Airports :

Ponta Pelada Airport

Manaus, Amazonas, Brazil

latitude: 03-09S, longitude: 059-59W, elevation: 84 m

Current weather observation

The report was made 6 minutes ago, at 02:00 UTC
Wind 3 kt from the East
Temperature 26°C
Humidity 89%
Pressure 1011 hPa
Visibility 10 km or more
no clouds below 1500 m and no cumulonimbus

METAR: SBMN 210200Z 08003KT CAVOK 26/24 Q1011

Time: 22:06 (02:06 UTC)

Forecast

The report was made 4 hours and 6 minutes ago, at 22:00 UTC
Forecast valid from 21 at 00 UTC to 21 at 12 UTC
Wind 4 kt from the East/Northeast
Visibility 10 km or more
Few clouds at a height of 1800 ft
Becoming
from 21 at 09 UTC to 21 at 10 UTC
Scattered clouds at a height of 1000 ft

TAF: SBMN 202200Z 2100/2112 06004KT 9999 FEW018 TN24/2104Z TX27/2111Z BECMG 2109/2110 SCT010 RMK PEU

Weather observations and forecasts of more than 4000 airports (METAR and TAF reports).

The available stations are represented by yellow and red dots on the map.

Hover mouse over dot to see the name of the station.

Then click to see weather observations and forecasts.

To change the map : click on the green buttons with a black cross to zoom in, on the green button with a dash to zoom out, or on the green arrows for adjacent maps.


METAR-TAF: